sensor_id;sensor_type;location;lat;lon;timestamp;temperature;humidity
20384;DHT22;46458;50.966;7.002;2022-07-22T00:01:21;19.30;99.90
20384;DHT22;46458;50.966;7.002;2022-07-22T00:03:47;19.30;99.90
20384;DHT22;46458;50.966;7.002;2022-07-22T00:06:13;19.30;99.90
20384;DHT22;46458;50.966;7.002;2022-07-22T00:08:38;19.20;99.90
20384;DHT22;46458;50.966;7.002;2022-07-22T00:11:04;19.20;99.90
20384;DHT22;46458;50.966;7.002;2022-07-22T00:13:30;19.00;99.90
20384;DHT22;46458;50.966;7.002;2022-07-22T00:15:55;19.10;99.90
20384;DHT22;46458;50.966;7.002;2022-07-22T00:18:21;19.10;99.90
20384;DHT22;46458;50.966;7.002;2022-07-22T00:20:50;19.10;99.90
20384;DHT22;46458;50.966;7.002;2022-07-22T00:23:15;19.00;99.90
20384;DHT22;46458;50.966;7.002;2022-07-22T00:25:41;19.00;99.90
20384;DHT22;46458;50.966;7.002;2022-07-22T00:28:07;19.10;99.90
20384;DHT22;46458;50.966;7.002;2022-07-22T00:30:32;19.00;99.90
20384;DHT22;46458;50.966;7.002;2022-07-22T00:32:58;19.00;99.90
20384;DHT22;46458;50.966;7.002;2022-07-22T00:35:24;19.00;99.90
20384;DHT22;46458;50.966;7.002;2022-07-22T00:37:49;19.10;99.90
20384;DHT22;46458;50.966;7.002;2022-07-22T00:40:15;19.10;99.90
20384;DHT22;46458;50.966;7.002;2022-07-22T00:42:40;19.10;99.90
20384;DHT22;46458;50.966;7.002;2022-07-22T00:45:07;19.00;99.90
20384;DHT22;46458;50.966;7.002;2022-07-22T00:47:32;19.10;99.90
20384;DHT22;46458;50.966;7.002;2022-07-22T00:49:58;19.10;99.90
20384;DHT22;46458;50.966;7.002;2022-07-22T00:52:24;19.10;99.90
20384;DHT22;46458;50.966;7.002;2022-07-22T00:54:50;19.10;99.90
20384;DHT22;46458;50.966;7.002;2022-07-22T00:57:16;19.10;99.90
20384;DHT22;46458;50.966;7.002;2022-07-22T00:59:42;19.10;99.90
20384;DHT22;46458;50.966;7.002;2022-07-22T01:02:08;19.10;99.90
20384;DHT22;46458;50.966;7.002;2022-07-22T01:04:34;19.10;99.90
20384;DHT22;46458;50.966;7.002;2022-07-22T01:07:00;19.10;99.90
20384;DHT22;46458;50.966;7.002;2022-07-22T01:09:28;19.10;99.90
20384;DHT22;46458;50.966;7.002;2022-07-22T01:11:53;19.10;99.90
20384;DHT22;46458;50.966;7.002;2022-07-22T01:14:19;19.10;99.90
20384;DHT22;46458;50.966;7.002;2022-07-22T01:16:45;19.10;99.90
20384;DHT22;46458;50.966;7.002;2022-07-22T01:19:11;19.10;99.90
20384;DHT22;46458;50.966;7.002;2022-07-22T01:21:36;19.00;99.90
20384;DHT22;46458;50.966;7.002;2022-07-22T01:24:04;19.00;99.90
20384;DHT22;46458;50.966;7.002;2022-07-22T01:26:30;19.10;99.90
20384;DHT22;46458;50.966;7.002;2022-07-22T01:28:55;19.10;99.90
20384;DHT22;46458;50.966;7.002;2022-07-22T01:31:21;19.10;99.90
20384;DHT22;46458;50.966;7.002;2022-07-22T01:33:47;19.00;99.90
20384;DHT22;46458;50.966;7.002;2022-07-22T01:36:14;19.00;99.90
20384;DHT22;46458;50.966;7.002;2022-07-22T01:38:39;19.10;99.90
20384;DHT22;46458;50.966;7.002;2022-07-22T01:41:08;19.10;99.90
20384;DHT22;46458;50.966;7.002;2022-07-22T01:43:37;19.10;99.90
20384;DHT22;46458;50.966;7.002;2022-07-22T01:46:03;19.10;99.90
20384;DHT22;46458;50.966;7.002;2022-07-22T01:48:28;19.10;99.90
20384;DHT22;46458;50.966;7.002;2022-07-22T01:50:54;19.10;99.90
20384;DHT22;46458;50.966;7.002;2022-07-22T01:53:20;19.10;99.90
20384;DHT22;46458;50.966;7.002;2022-07-22T01:55:48;19.10;99.90
20384;DHT22;46458;50.966;7.002;2022-07-22T01:58:14;19.00;99.90
20384;DHT22;46458;50.966;7.002;2022-07-22T02:00:40;19.10;99.90
20384;DHT22;46458;50.966;7.002;2022-07-22T02:03:05;19.10;99.90
20384;DHT22;46458;50.966;7.002;2022-07-22T02:05:34;19.10;99.90
20384;DHT22;46458;50.966;7.002;2022-07-22T02:08:06;19.10;99.90
20384;DHT22;46458;50.966;7.002;2022-07-22T02:10:32;19.10;99.90
20384;DHT22;46458;50.966;7.002;2022-07-22T02:12:58;19.10;99.90
20384;DHT22;46458;50.966;7.002;2022-07-22T02:15:24;19.10;99.90
20384;DHT22;46458;50.966;7.002;2022-07-22T02:17:50;19.00;99.90
20384;DHT22;46458;50.966;7.002;2022-07-22T02:20:16;19.00;99.90
20384;DHT22;46458;50.966;7.002;2022-07-22T02:22:41;19.00;99.90
20384;DHT22;46458;50.966;7.002;2022-07-22T02:25:07;19.00;99.90
20384;DHT22;46458;50.966;7.002;2022-07-22T02:27:34;19.00;99.90
20384;DHT22;46458;50.966;7.002;2022-07-22T02:29:59;19.10;99.90
20384;DHT22;46458;50.966;7.002;2022-07-22T02:32:25;19.10;99.90
20384;DHT22;46458;50.966;7.002;2022-07-22T02:34:51;19.00;99.90
20384;DHT22;46458;50.966;7.002;2022-07-22T02:37:16;19.00;99.90
20384;DHT22;46458;50.966;7.002;2022-07-22T02:39:42;19.10;99.90
20384;DHT22;46458;50.966;7.002;2022-07-22T02:42:07;19.10;99.90
20384;DHT22;46458;50.966;7.002;2022-07-22T02:44:33;19.00;99.90
20384;DHT22;46458;50.966;7.002;2022-07-22T02:46:59;19.00;99.90
20384;DHT22;46458;50.966;7.002;2022-07-22T02:49:24;19.00;99.90
20384;DHT22;46458;50.966;7.002;2022-07-22T02:51:50;19.00;99.90
20384;DHT22;46458;50.966;7.002;2022-07-22T02:54:16;19.00;99.90
20384;DHT22;46458;50.966;7.002;2022-07-22T02:56:41;19.00;99.90
20384;DHT22;46458;50.966;7.002;2022-07-22T02:59:07;19.00;99.90
20384;DHT22;46458;50.966;7.002;2022-07-22T03:01:32;19.00;99.90
20384;DHT22;46458;50.966;7.002;2022-07-22T03:04:01;19.00;99.90
20384;DHT22;46458;50.966;7.002;2022-07-22T03:06:27;19.00;99.90
20384;DHT22;46458;50.966;7.002;2022-07-22T03:08:52;18.90;99.90
20384;DHT22;46458;50.966;7.002;2022-07-22T03:11:18;18.90;99.90
20384;DHT22;46458;50.966;7.002;2022-07-22T03:13:43;18.90;99.90
20384;DHT22;46458;50.966;7.002;2022-07-22T03:16:09;18.90;99.90
20384;DHT22;46458;50.966;7.002;2022-07-22T03:18:35;18.90;99.90
20384;DHT22;46458;50.966;7.002;2022-07-22T03:21:00;18.90;99.90
20384;DHT22;46458;50.966;7.002;2022-07-22T03:23:26;19.00;99.90
20384;DHT22;46458;50.966;7.002;2022-07-22T03:25:51;18.90;99.90
20384;DHT22;46458;50.966;7.002;2022-07-22T03:28:17;18.90;99.90
20384;DHT22;46458;50.966;7.002;2022-07-22T03:30:46;18.90;99.90
20384;DHT22;46458;50.966;7.002;2022-07-22T03:33:11;18.90;99.90
20384;DHT22;46458;50.966;7.002;2022-07-22T03:35:37;19.00;99.90
20384;DHT22;46458;50.966;7.002;2022-07-22T03:38:02;19.00;99.90
20384;DHT22;46458;50.966;7.002;2022-07-22T03:40:29;19.00;99.90
20384;DHT22;46458;50.966;7.002;2022-07-22T03:42:54;19.00;99.90
20384;DHT22;46458;50.966;7.002;2022-07-22T03:45:20;18.90;99.90
20384;DHT22;46458;50.966;7.002;2022-07-22T03:47:46;18.90;99.90
20384;DHT22;46458;50.966;7.002;2022-07-22T03:50:11;18.90;99.90
20384;DHT22;46458;50.966;7.002;2022-07-22T03:52:37;18.90;99.90
20384;DHT22;46458;50.966;7.002;2022-07-22T03:55:03;18.90;99.90
20384;DHT22;46458;50.966;7.002;2022-07-22T03:57:29;18.90;99.90
20384;DHT22;46458;50.966;7.002;2022-07-22T03:59:55;18.90;99.90
20384;DHT22;46458;50.966;7.002;2022-07-22T04:02:20;18.90;99.90
20384;DHT22;46458;50.966;7.002;2022-07-22T04:04:46;19.00;99.90
20384;DHT22;46458;50.966;7.002;2022-07-22T04:07:12;19.00;99.90
20384;DHT22;46458;50.966;7.002;2022-07-22T04:09:37;18.90;99.90
20384;DHT22;46458;50.966;7.002;2022-07-22T04:12:03;19.00;99.90
20384;DHT22;46458;50.966;7.002;2022-07-22T04:14:29;19.00;99.90
20384;DHT22;46458;50.966;7.002;2022-07-22T04:16:57;19.00;99.90
20384;DHT22;46458;50.966;7.002;2022-07-22T04:19:23;19.00;99.90
20384;DHT22;46458;50.966;7.002;2022-07-22T04:21:49;19.00;99.90
20384;DHT22;46458;50.966;7.002;2022-07-22T04:24:14;19.00;99.90
20384;DHT22;46458;50.966;7.002;2022-07-22T04:26:40;18.90;99.90
20384;DHT22;46458;50.966;7.002;2022-07-22T04:29:09;18.90;99.90
20384;DHT22;46458;50.966;7.002;2022-07-22T04:31:34;18.90;99.90
20384;DHT22;46458;50.966;7.002;2022-07-22T04:34:00;18.90;99.90
20384;DHT22;46458;50.966;7.002;2022-07-22T04:36:25;18.80;99.90
20384;DHT22;46458;50.966;7.002;2022-07-22T04:38:51;18.90;99.90
20384;DHT22;46458;50.966;7.002;2022-07-22T04:41:16;18.90;99.90
20384;DHT22;46458;50.966;7.002;2022-07-22T04:43:42;18.90;99.90
20384;DHT22;46458;50.966;7.002;2022-07-22T04:46:08;18.90;99.90
20384;DHT22;46458;50.966;7.002;2022-07-22T04:48:34;18.90;99.90
20384;DHT22;46458;50.966;7.002;2022-07-22T04:51:03;18.80;99.90
20384;DHT22;46458;50.966;7.002;2022-07-22T04:53:29;18.80;99.90
20384;DHT22;46458;50.966;7.002;2022-07-22T04:55:55;18.90;99.90
20384;DHT22;46458;50.966;7.002;2022-07-22T04:58:20;18.90;99.90
20384;DHT22;46458;50.966;7.002;2022-07-22T05:00:46;18.90;99.90
20384;DHT22;46458;50.966;7.002;2022-07-22T05:03:12;18.90;99.90
20384;DHT22;46458;50.966;7.002;2022-07-22T05:05:38;18.90;99.90
20384;DHT22;46458;50.966;7.002;2022-07-22T05:08:04;18.90;99.90
20384;DHT22;46458;50.966;7.002;2022-07-22T05:10:30;18.80;99.90
20384;DHT22;46458;50.966;7.002;2022-07-22T05:12:55;18.80;99.90
20384;DHT22;46458;50.966;7.002;2022-07-22T05:15:21;18.90;99.90
20384;DHT22;46458;50.966;7.002;2022-07-22T05:17:46;18.80;99.90
20384;DHT22;46458;50.966;7.002;2022-07-22T05:20:12;18.80;99.90
20384;DHT22;46458;50.966;7.002;2022-07-22T05:22:38;18.90;99.90
20384;DHT22;46458;50.966;7.002;2022-07-22T05:25:04;18.80;99.90
20384;DHT22;46458;50.966;7.002;2022-07-22T05:27:30;18.60;99.90
20384;DHT22;46458;50.966;7.002;2022-07-22T05:29:56;18.80;99.90
20384;DHT22;46458;50.966;7.002;2022-07-22T05:32:22;18.80;99.90
20384;DHT22;46458;50.966;7.002;2022-07-22T05:34:48;18.90;99.90
20384;DHT22;46458;50.966;7.002;2022-07-22T05:37:13;19.00;99.90
20384;DHT22;46458;50.966;7.002;2022-07-22T05:39:41;18.90;99.90
20384;DHT22;46458;50.966;7.002;2022-07-22T05:42:07;18.90;99.90
20384;DHT22;46458;50.966;7.002;2022-07-22T05:44:33;18.90;99.90
20384;DHT22;46458;50.966;7.002;2022-07-22T05:46:58;19.00;99.90
20384;DHT22;46458;50.966;7.002;2022-07-22T05:49:24;19.00;99.90
20384;DHT22;46458;50.966;7.002;2022-07-22T05:51:52;19.00;99.90
20384;DHT22;46458;50.966;7.002;2022-07-22T05:54:18;19.00;99.90
20384;DHT22;46458;50.966;7.002;2022-07-22T05:56:43;19.00;99.90
20384;DHT22;46458;50.966;7.002;2022-07-22T05:59:12;19.10;99.90
20384;DHT22;46458;50.966;7.002;2022-07-22T06:01:37;19.00;99.90
20384;DHT22;46458;50.966;7.002;2022-07-22T06:04:03;19.00;99.90
20384;DHT22;46458;50.966;7.002;2022-07-22T06:06:28;19.00;99.90
20384;DHT22;46458;50.966;7.002;2022-07-22T06:08:54;19.00;99.90
20384;DHT22;46458;50.966;7.002;2022-07-22T06:11:20;19.00;99.90
20384;DHT22;46458;50.966;7.002;2022-07-22T06:13:46;19.00;99.90
20384;DHT22;46458;50.966;7.002;2022-07-22T06:16:14;19.10;99.90
20384;DHT22;46458;50.966;7.002;2022-07-22T06:18:43;19.10;99.90
20384;DHT22;46458;50.966;7.002;2022-07-22T06:21:08;19.10;99.90
20384;DHT22;46458;50.966;7.002;2022-07-22T06:23:34;19.00;99.90
20384;DHT22;46458;50.966;7.002;2022-07-22T06:26:00;19.10;99.90
20384;DHT22;46458;50.966;7.002;2022-07-22T06:28:26;19.10;99.90
20384;DHT22;46458;50.966;7.002;2022-07-22T06:30:51;19.10;99.90
20384;DHT22;46458;50.966;7.002;2022-07-22T06:33:20;19.10;99.90
20384;DHT22;46458;50.966;7.002;2022-07-22T06:35:45;19.10;99.90
20384;DHT22;46458;50.966;7.002;2022-07-22T06:38:11;19.10;99.90
20384;DHT22;46458;50.966;7.002;2022-07-22T06:40:36;19.00;99.90
20384;DHT22;46458;50.966;7.002;2022-07-22T06:43:04;19.10;99.90
20384;DHT22;46458;50.966;7.002;2022-07-22T06:45:30;19.10;99.90
20384;DHT22;46458;50.966;7.002;2022-07-22T06:47:55;19.00;99.90
20384;DHT22;46458;50.966;7.002;2022-07-22T06:50:21;19.10;99.90
20384;DHT22;46458;50.966;7.002;2022-07-22T06:52:47;19.10;99.90
20384;DHT22;46458;50.966;7.002;2022-07-22T06:55:14;19.10;99.90
20384;DHT22;46458;50.966;7.002;2022-07-22T06:57:40;19.10;99.90
20384;DHT22;46458;50.966;7.002;2022-07-22T07:00:06;19.00;99.90
20384;DHT22;46458;50.966;7.002;2022-07-22T07:02:35;19.10;99.90
20384;DHT22;46458;50.966;7.002;2022-07-22T07:05:01;19.10;99.90
20384;DHT22;46458;50.966;7.002;2022-07-22T07:07:27;19.10;99.90
20384;DHT22;46458;50.966;7.002;2022-07-22T07:09:53;19.10;99.90
20384;DHT22;46458;50.966;7.002;2022-07-22T07:12:18;19.00;99.90
20384;DHT22;46458;50.966;7.002;2022-07-22T07:14:47;19.20;99.90
20384;DHT22;46458;50.966;7.002;2022-07-22T07:17:15;19.20;99.90
20384;DHT22;46458;50.966;7.002;2022-07-22T07:19:41;17.90;99.90
20384;DHT22;46458;50.966;7.002;2022-07-22T07:22:07;19.10;99.90
20384;DHT22;46458;50.966;7.002;2022-07-22T07:24:33;19.10;99.90
20384;DHT22;46458;50.966;7.002;2022-07-22T07:26:58;19.20;99.90
20384;DHT22;46458;50.966;7.002;2022-07-22T07:29:24;19.20;99.90
20384;DHT22;46458;50.966;7.002;2022-07-22T07:31:49;19.20;99.90
20384;DHT22;46458;50.966;7.002;2022-07-22T07:34:15;19.20;99.90
20384;DHT22;46458;50.966;7.002;2022-07-22T07:36:41;19.30;99.90
20384;DHT22;46458;50.966;7.002;2022-07-22T07:39:07;19.30;99.90
20384;DHT22;46458;50.966;7.002;2022-07-22T07:41:33;19.30;99.90
20384;DHT22;46458;50.966;7.002;2022-07-22T07:43:58;19.30;99.90
20384;DHT22;46458;50.966;7.002;2022-07-22T07:46:24;19.40;99.90
20384;DHT22;46458;50.966;7.002;2022-07-22T07:48:50;19.40;99.90
20384;DHT22;46458;50.966;7.002;2022-07-22T07:51:15;19.40;99.90
20384;DHT22;46458;50.966;7.002;2022-07-22T07:53:41;19.50;99.90
20384;DHT22;46458;50.966;7.002;2022-07-22T07:56:07;19.40;99.90
20384;DHT22;46458;50.966;7.002;2022-07-22T07:58:32;19.40;99.90
20384;DHT22;46458;50.966;7.002;2022-07-22T08:00:58;19.50;99.90
20384;DHT22;46458;50.966;7.002;2022-07-22T08:03:23;19.40;99.90
20384;DHT22;46458;50.966;7.002;2022-07-22T08:05:49;19.40;99.90
20384;DHT22;46458;50.966;7.002;2022-07-22T08:08:15;19.50;99.90
20384;DHT22;46458;50.966;7.002;2022-07-22T08:10:41;19.50;99.90
20384;DHT22;46458;50.966;7.002;2022-07-22T08:13:09;19.50;99.90
20384;DHT22;46458;50.966;7.002;2022-07-22T08:15:35;19.50;99.90
20384;DHT22;46458;50.966;7.002;2022-07-22T08:18:01;19.50;99.90
20384;DHT22;46458;50.966;7.002;2022-07-22T08:20:28;19.50;99.90
20384;DHT22;46458;50.966;7.002;2022-07-22T08:22:53;19.60;99.90
20384;DHT22;46458;50.966;7.002;2022-07-22T08:25:20;19.50;99.90
20384;DHT22;46458;50.966;7.002;2022-07-22T08:27:46;19.60;99.90
20384;DHT22;46458;50.966;7.002;2022-07-22T08:30:12;19.40;99.90
20384;DHT22;46458;50.966;7.002;2022-07-22T08:32:39;19.50;99.90
20384;DHT22;46458;50.966;7.002;2022-07-22T08:35:08;19.50;99.90
20384;DHT22;46458;50.966;7.002;2022-07-22T08:37:34;19.60;99.90
20384;DHT22;46458;50.966;7.002;2022-07-22T08:40:00;19.60;99.90
20384;DHT22;46458;50.966;7.002;2022-07-22T08:42:26;19.60;99.90
20384;DHT22;46458;50.966;7.002;2022-07-22T08:44:53;19.60;99.90
20384;DHT22;46458;50.966;7.002;2022-07-22T08:47:22;19.60;99.90
20384;DHT22;46458;50.966;7.002;2022-07-22T08:49:48;19.60;99.90
20384;DHT22;46458;50.966;7.002;2022-07-22T08:52:14;19.60;99.90
20384;DHT22;46458;50.966;7.002;2022-07-22T08:54:40;19.70;99.90
20384;DHT22;46458;50.966;7.002;2022-07-22T08:57:06;19.60;99.90
20384;DHT22;46458;50.966;7.002;2022-07-22T08:59:31;19.70;99.90
20384;DHT22;46458;50.966;7.002;2022-07-22T09:02:08;19.80;99.90
20384;DHT22;46458;50.966;7.002;2022-07-22T09:04:50;19.80;99.90
20384;DHT22;46458;50.966;7.002;2022-07-22T09:07:40;19.80;99.90
20384;DHT22;46458;50.966;7.002;2022-07-22T09:10:11;19.80;99.90
20384;DHT22;46458;50.966;7.002;2022-07-22T09:12:58;19.80;99.90
20384;DHT22;46458;50.966;7.002;2022-07-22T09:15:28;19.90;99.90
20384;DHT22;46458;50.966;7.002;2022-07-22T09:17:54;20.00;99.90
20384;DHT22;46458;50.966;7.002;2022-07-22T09:20:20;20.20;99.90
20384;DHT22;46458;50.966;7.002;2022-07-22T09:22:48;20.10;99.90
20384;DHT22;46458;50.966;7.002;2022-07-22T09:27:48;20.30;99.90
20384;DHT22;46458;50.966;7.002;2022-07-22T09:30:24;20.40;99.90
20384;DHT22;46458;50.966;7.002;2022-07-22T09:32:52;20.50;99.90
20384;DHT22;46458;50.966;7.002;2022-07-22T09:35:17;20.60;99.90
20384;DHT22;46458;50.966;7.002;2022-07-22T09:37:58;20.70;99.90
20384;DHT22;46458;50.966;7.002;2022-07-22T09:40:26;20.80;99.90
20384;DHT22;46458;50.966;7.002;2022-07-22T09:43:01;20.90;99.90
20384;DHT22;46458;50.966;7.002;2022-07-22T09:45:28;21.00;99.90
20384;DHT22;46458;50.966;7.002;2022-07-22T09:47:55;21.00;99.90
20384;DHT22;46458;50.966;7.002;2022-07-22T09:50:30;21.00;99.90
20384;DHT22;46458;50.966;7.002;2022-07-22T09:52:59;21.10;99.90
20384;DHT22;46458;50.966;7.002;2022-07-22T09:55:26;21.10;99.90
20384;DHT22;46458;50.966;7.002;2022-07-22T09:57:54;21.20;99.90
20384;DHT22;46458;50.966;7.002;2022-07-22T10:00:22;21.30;99.90
20384;DHT22;46458;50.966;7.002;2022-07-22T10:05:20;21.50;99.90
20384;DHT22;46458;50.966;7.002;2022-07-22T10:07:48;21.50;99.90
20384;DHT22;46458;50.966;7.002;2022-07-22T10:10:19;21.70;99.90
20384;DHT22;46458;50.966;7.002;2022-07-22T10:12:48;21.70;99.90
20384;DHT22;46458;50.966;7.002;2022-07-22T10:15:14;21.70;99.90
20384;DHT22;46458;50.966;7.002;2022-07-22T10:17:43;21.70;99.90
20384;DHT22;46458;50.966;7.002;2022-07-22T10:20:09;21.70;99.90
20384;DHT22;46458;50.966;7.002;2022-07-22T10:25:09;21.70;99.90
20384;DHT22;46458;50.966;7.002;2022-07-22T10:27:49;21.70;99.90
20384;DHT22;46458;50.966;7.002;2022-07-22T10:30:21;21.70;99.90
20384;DHT22;46458;50.966;7.002;2022-07-22T10:33:10;21.70;99.90
20384;DHT22;46458;50.966;7.002;2022-07-22T10:36:00;21.70;99.90
20384;DHT22;46458;50.966;7.002;2022-07-22T10:38:30;21.80;99.90
20384;DHT22;46458;50.966;7.002;2022-07-22T10:41:02;21.80;99.90
20384;DHT22;46458;50.966;7.002;2022-07-22T10:46:07;21.80;99.90
20384;DHT22;46458;50.966;7.002;2022-07-22T10:58:48;21.90;99.90
20384;DHT22;46458;50.966;7.002;2022-07-22T11:01:15;21.90;99.90
20384;DHT22;46458;50.966;7.002;2022-07-22T11:03:44;22.00;99.90
20384;DHT22;46458;50.966;7.002;2022-07-22T11:08:43;22.40;99.90
20384;DHT22;46458;50.966;7.002;2022-07-22T11:11:09;22.40;99.90
20384;DHT22;46458;50.966;7.002;2022-07-22T11:13:37;22.50;99.90
20384;DHT22;46458;50.966;7.002;2022-07-22T11:16:23;22.60;99.90
20384;DHT22;46458;50.966;7.002;2022-07-22T11:18:53;22.60;99.90
20384;DHT22;46458;50.966;7.002;2022-07-22T11:21:21;22.60;99.90
20384;DHT22;46458;50.966;7.002;2022-07-22T11:23:49;22.60;99.90
20384;DHT22;46458;50.966;7.002;2022-07-22T11:26:17;22.70;99.90
20384;DHT22;46458;50.966;7.002;2022-07-22T11:28:44;22.80;99.90
20384;DHT22;46458;50.966;7.002;2022-07-22T11:31:14;23.00;99.90
20384;DHT22;46458;50.966;7.002;2022-07-22T11:33:44;23.00;99.90
20384;DHT22;46458;50.966;7.002;2022-07-22T11:36:11;23.00;99.90
20384;DHT22;46458;50.966;7.002;2022-07-22T11:41:10;23.50;99.90
20384;DHT22;46458;50.966;7.002;2022-07-22T11:43:40;23.90;99.90
20384;DHT22;46458;50.966;7.002;2022-07-22T11:46:06;25.10;99.90
20384;DHT22;46458;50.966;7.002;2022-07-22T11:48:31;27.20;99.90
20384;DHT22;46458;50.966;7.002;2022-07-22T11:51:06;26.60;99.90
20384;DHT22;46458;50.966;7.002;2022-07-22T11:53:34;26.10;99.90
20384;DHT22;46458;50.966;7.002;2022-07-22T11:56:01;25.80;99.90
20384;DHT22;46458;50.966;7.002;2022-07-22T12:01:09;26.30;99.90
20384;DHT22;46458;50.966;7.002;2022-07-22T12:03:36;26.20;99.90
20384;DHT22;46458;50.966;7.002;2022-07-22T12:06:08;26.40;99.90
20384;DHT22;46458;50.966;7.002;2022-07-22T12:08:40;26.50;99.90
20384;DHT22;46458;50.966;7.002;2022-07-22T12:11:06;26.20;99.90
20384;DHT22;46458;50.966;7.002;2022-07-22T12:13:32;25.80;99.90
20384;DHT22;46458;50.966;7.002;2022-07-22T12:15:58;25.50;99.90
20384;DHT22;46458;50.966;7.002;2022-07-22T12:18:27;25.40;99.90
20384;DHT22;46458;50.966;7.002;2022-07-22T12:20:55;25.40;99.90
20384;DHT22;46458;50.966;7.002;2022-07-22T12:23:22;25.30;99.90
20384;DHT22;46458;50.966;7.002;2022-07-22T12:25:52;25.20;99.90
20384;DHT22;46458;50.966;7.002;2022-07-22T12:28:17;25.10;99.90
20384;DHT22;46458;50.966;7.002;2022-07-22T12:30:43;25.10;99.90
20384;DHT22;46458;50.966;7.002;2022-07-22T12:33:16;24.90;99.90
20384;DHT22;46458;50.966;7.002;2022-07-22T12:35:42;24.70;99.90
20384;DHT22;46458;50.966;7.002;2022-07-22T12:38:10;24.70;99.90
20384;DHT22;46458;50.966;7.002;2022-07-22T12:40:41;24.70;99.90
20384;DHT22;46458;50.966;7.002;2022-07-22T12:43:09;24.70;99.90
20384;DHT22;46458;50.966;7.002;2022-07-22T12:45:37;24.70;99.90
20384;DHT22;46458;50.966;7.002;2022-07-22T12:53:09;24.60;99.90
20384;DHT22;46458;50.966;7.002;2022-07-22T12:55:39;24.60;99.90
20384;DHT22;46458;50.966;7.002;2022-07-22T12:58:05;24.60;99.90
20384;DHT22;46458;50.966;7.002;2022-07-22T13:00:43;24.60;99.90
20384;DHT22;46458;50.966;7.002;2022-07-22T13:03:09;24.60;99.90
20384;DHT22;46458;50.966;7.002;2022-07-22T13:05:35;24.80;99.90
20384;DHT22;46458;50.966;7.002;2022-07-22T13:08:02;24.90;99.90
20384;DHT22;46458;50.966;7.002;2022-07-22T13:10:28;24.90;99.90
20384;DHT22;46458;50.966;7.002;2022-07-22T13:12:54;24.80;99.90
20384;DHT22;46458;50.966;7.002;2022-07-22T13:15:20;25.00;99.90
20384;DHT22;46458;50.966;7.002;2022-07-22T13:17:47;25.20;99.90
20384;DHT22;46458;50.966;7.002;2022-07-22T13:20:14;25.20;99.90
20384;DHT22;46458;50.966;7.002;2022-07-22T13:22:41;25.20;99.90
20384;DHT22;46458;50.966;7.002;2022-07-22T13:25:07;25.10;99.90
20384;DHT22;46458;50.966;7.002;2022-07-22T13:27:33;25.10;99.90
20384;DHT22;46458;50.966;7.002;2022-07-22T13:29:58;25.10;99.90
20384;DHT22;46458;50.966;7.002;2022-07-22T13:32:27;25.00;99.90
20384;DHT22;46458;50.966;7.002;2022-07-22T13:34:52;25.00;99.90
20384;DHT22;46458;50.966;7.002;2022-07-22T13:37:18;25.00;99.90
20384;DHT22;46458;50.966;7.002;2022-07-22T13:39:46;25.00;99.90
20384;DHT22;46458;50.966;7.002;2022-07-22T13:42:14;25.00;99.90
20384;DHT22;46458;50.966;7.002;2022-07-22T13:44:46;25.10;99.90
20384;DHT22;46458;50.966;7.002;2022-07-22T13:47:11;25.20;99.90
20384;DHT22;46458;50.966;7.002;2022-07-22T13:49:37;25.20;99.90
20384;DHT22;46458;50.966;7.002;2022-07-22T13:52:04;25.20;99.90
20384;DHT22;46458;50.966;7.002;2022-07-22T13:54:30;25.10;99.90
20384;DHT22;46458;50.966;7.002;2022-07-22T13:56:56;25.20;99.90
20384;DHT22;46458;50.966;7.002;2022-07-22T13:59:26;25.50;99.90
20384;DHT22;46458;50.966;7.002;2022-07-22T14:01:59;25.60;99.90
20384;DHT22;46458;50.966;7.002;2022-07-22T14:04:26;25.60;99.90
20384;DHT22;46458;50.966;7.002;2022-07-22T14:06:52;25.50;99.90
20384;DHT22;46458;50.966;7.002;2022-07-22T14:09:21;25.50;99.90
20384;DHT22;46458;50.966;7.002;2022-07-22T14:11:47;25.60;99.90
20384;DHT22;46458;50.966;7.002;2022-07-22T14:14:13;25.50;99.90
20384;DHT22;46458;50.966;7.002;2022-07-22T14:16:39;25.60;99.90
20384;DHT22;46458;50.966;7.002;2022-07-22T14:19:07;25.70;99.90
20384;DHT22;46458;50.966;7.002;2022-07-22T14:21:33;25.80;99.90
20384;DHT22;46458;50.966;7.002;2022-07-22T14:24:00;25.80;99.90
20384;DHT22;46458;50.966;7.002;2022-07-22T14:26:26;25.80;99.90
20384;DHT22;46458;50.966;7.002;2022-07-22T14:28:53;25.80;99.90
20384;DHT22;46458;50.966;7.002;2022-07-22T14:31:19;25.70;99.90
20384;DHT22;46458;50.966;7.002;2022-07-22T14:33:45;25.80;99.90
20384;DHT22;46458;50.966;7.002;2022-07-22T14:36:11;25.70;99.90
20384;DHT22;46458;50.966;7.002;2022-07-22T14:38:36;25.80;99.90
20384;DHT22;46458;50.966;7.002;2022-07-22T14:41:02;25.90;99.90
20384;DHT22;46458;50.966;7.002;2022-07-22T14:43:28;26.00;99.90
20384;DHT22;46458;50.966;7.002;2022-07-22T14:45:54;26.00;99.90
20384;DHT22;46458;50.966;7.002;2022-07-22T14:48:19;26.10;99.90
20384;DHT22;46458;50.966;7.002;2022-07-22T14:50:45;26.10;99.90
20384;DHT22;46458;50.966;7.002;2022-07-22T14:53:12;26.10;99.90
20384;DHT22;46458;50.966;7.002;2022-07-22T14:55:38;26.00;99.90
20384;DHT22;46458;50.966;7.002;2022-07-22T14:58:03;25.90;99.90
20384;DHT22;46458;50.966;7.002;2022-07-22T15:00:29;25.80;99.90
20384;DHT22;46458;50.966;7.002;2022-07-22T15:02:54;25.70;99.90
20384;DHT22;46458;50.966;7.002;2022-07-22T15:05:20;25.60;99.90
20384;DHT22;46458;50.966;7.002;2022-07-22T15:07:45;25.50;99.90
20384;DHT22;46458;50.966;7.002;2022-07-22T15:10:11;25.50;99.90
20384;DHT22;46458;50.966;7.002;2022-07-22T15:12:40;25.50;99.90
20384;DHT22;46458;50.966;7.002;2022-07-22T15:15:05;25.40;99.90
20384;DHT22;46458;50.966;7.002;2022-07-22T15:17:34;25.40;99.90
20384;DHT22;46458;50.966;7.002;2022-07-22T15:20:00;25.40;99.90
20384;DHT22;46458;50.966;7.002;2022-07-22T15:22:26;25.40;99.90
20384;DHT22;46458;50.966;7.002;2022-07-22T15:24:53;25.40;99.90
20384;DHT22;46458;50.966;7.002;2022-07-22T15:27:19;25.30;99.90
20384;DHT22;46458;50.966;7.002;2022-07-22T15:29:44;25.30;99.90
20384;DHT22;46458;50.966;7.002;2022-07-22T15:32:10;25.30;99.90
20384;DHT22;46458;50.966;7.002;2022-07-22T15:34:37;25.20;99.90
20384;DHT22;46458;50.966;7.002;2022-07-22T15:37:02;25.30;99.90
20384;DHT22;46458;50.966;7.002;2022-07-22T15:39:28;25.30;99.90
20384;DHT22;46458;50.966;7.002;2022-07-22T15:41:54;25.30;99.90
20384;DHT22;46458;50.966;7.002;2022-07-22T15:44:19;25.20;99.90
20384;DHT22;46458;50.966;7.002;2022-07-22T15:46:45;25.20;99.90
20384;DHT22;46458;50.966;7.002;2022-07-22T15:49:12;25.10;99.90
20384;DHT22;46458;50.966;7.002;2022-07-22T15:51:37;25.10;99.90
20384;DHT22;46458;50.966;7.002;2022-07-22T15:54:09;25.10;99.90
20384;DHT22;46458;50.966;7.002;2022-07-22T15:56:35;25.10;99.90
20384;DHT22;46458;50.966;7.002;2022-07-22T15:59:00;25.10;99.90
20384;DHT22;46458;50.966;7.002;2022-07-22T16:01:44;25.10;99.90